Time;durP1;ratioP1;P1;durP2;ratioP2;P2;SDS_P1;SDS_P2;PMS_P1;PMS_P2;Temp;Humidity;BMP_temperature;BMP_pressure;BME280_temperature;BME280_humidity;BME280_pressure;Samples;Min_cycle;Max_cycle;Signal;HPM_P1;HPM_P2
2023/10/05 00:02:11;;;;;;;3.83;0.80;;;23.20;24.80;;;;;;4992171;28;20179;-68
2023/10/05 00:04:44;;;;;;;2.50;0.70;;;23.30;26.70;;;;;;5008805;28;20340;-69
2023/10/05 00:07:32;;;;;;;1.97;0.60;;;23.30;25.40;;;;;;4992749;28;20186;-67
2023/10/05 00:10:00;;;;;;;1.83;0.60;;;23.20;23.30;;;;;;5011644;28;20579;-71
2023/10/05 00:12:28;;;;;;;1.47;0.50;;;23.00;23.00;;;;;;5023981;28;20182;-69
2023/10/05 00:15:09;;;;;;;1.80;0.50;;;23.30;21.90;;;;;;5015139;28;20248;-71
2023/10/05 00:17:39;;;;;;;1.80;0.60;;;23.40;21.60;;;;;;5011304;28;20663;-69
2023/10/05 00:20:32;;;;;;;1.10;0.60;;;22.90;21.10;;;;;;5011980;28;20178;-69
2023/10/05 00:23:03;;;;;;;0.53;0.50;;;23.00;18.70;;;;;;4972327;28;20234;-69
2023/10/05 00:25:32;;;;;;;0.77;0.57;;;23.50;20.50;;;;;;4973222;28;20246;-70
2023/10/05 00:28:04;;;;;;;1.47;0.80;;;23.70;21.20;;;;;;4971205;28;20195;-71
2023/10/05 00:30:33;;;;;;;0.40;0.40;;;23.80;20.90;;;;;;4990335;28;20191;-66
2023/10/05 00:33:00;;;;;;;1.10;0.67;;;24.00;17.90;;;;;;4973769;28;20226;-68
2023/10/05 00:35:28;;;;;;;1.23;0.47;;;24.10;16.90;;;;;;4972681;28;20182;-69
2023/10/05 00:38:38;;;;;;;1.70;0.73;;;24.40;16.20;;;;;;4985752;28;20196;-71
2023/10/05 00:43:24;;;;;;;1.83;0.60;;;24.50;15.10;;;;;;4993485;28;20191;-72
2023/10/05 00:45:58;;;;;;;0.50;0.40;;;24.40;15.20;;;;;;4977486;28;20627;-71
2023/10/05 00:48:36;;;;;;;1.43;0.70;;;24.40;15.20;;;;;;4972493;28;20191;-70
2023/10/05 00:51:09;;;;;;;0.70;0.40;;;24.50;15.10;;;;;;4972577;28;20183;-69
2023/10/05 00:53:37;;;;;;;1.80;0.40;;;24.70;14.50;;;;;;4979214;28;20193;-69
2023/10/05 00:56:15;;;;;;;0.70;0.40;;;24.70;13.90;;;;;;4991292;28;20182;-69
2023/10/05 00:58:48;;;;;;;1.77;0.73;;;24.60;12.10;;;;;;4980874;28;20221;-70
2023/10/05 01:01:16;;;;;;;0.80;0.40;;;25.00;10.40;;;;;;4992570;28;20186;-68
2023/10/05 01:14:52;;;;;;;1.33;0.60;;;23.90;5.30;;;;;;4943381;28;20672;-68
2023/10/05 01:17:27;;;;;;;2.83;0.70;;;24.20;6.10;;;;;;4976182;28;20194;-69
2023/10/05 01:19:59;;;;;;;2.70;0.60;;;24.60;5.60;;;;;;4976669;28;20525;-71
2023/10/05 01:22:38;;;;;;;2.00;0.70;;;24.80;4.70;;;;;;4986746;28;20208;-69
2023/10/05 01:25:12;;;;;;;1.60;0.60;;;24.60;3.80;;;;;;4991326;28;20261;-69
2023/10/05 01:27:40;;;;;;;1.93;0.53;;;24.50;3.80;;;;;;4984609;28;20270;-69
2023/10/05 01:30:17;;;;;;;3.50;0.80;;;24.40;4.40;;;;;;4967488;28;20183;-71
2023/10/05 01:32:47;;;;;;;1.33;0.50;;;24.30;4.80;;;;;;4978583;28;20207;-68
2023/10/05 01:35:20;;;;;;;2.90;0.70;;;24.80;4.60;;;;;;4983040;28;20194;-70
2023/10/05 01:37:52;;;;;;;2.47;0.73;;;25.00;3.80;;;;;;4977609;28;20191;-69
2023/10/05 01:40:23;;;;;;;1.57;0.80;;;25.10;1.70;;;;;;4978151;28;20633;-70
2023/10/05 01:42:54;;;;;;;1.87;0.40;;;24.40;3.00;;;;;;4965848;28;20189;-70
2023/10/05 01:45:34;;;;;;;1.17;0.77;;;24.50;4.40;;;;;;4975537;28;20242;-71
2023/10/05 01:48:04;;;;;;;6.13;0.53;;;24.90;2.60;;;;;;4958346;28;20191;-71
2023/10/05 01:50:32;;;;;;;2.77;0.87;;;25.00;4.20;;;;;;4974872;28;20219;-71
2023/10/05 01:53:15;;;;;;;1.53;0.57;;;24.80;2.50;;;;;;4976669;28;20229;-68
2023/10/05 01:55:47;;;;;;;0.93;0.40;;;24.80;4.10;;;;;;4975364;28;20190;-68
2023/10/05 01:58:24;;;;;;;1.70;0.70;;;24.40;1.50;;;;;;4976917;28;20194;-67
2023/10/05 02:00:53;;;;;;;0.80;0.53;;;24.60;1.80;;;;;;4991692;28;20696;-66
2023/10/05 02:03:24;;;;;;;1.10;0.60;;;25.20;1.90;;;;;;4975742;28;20667;-67
2023/10/05 02:05:58;;;;;;;2.40;0.60;;;25.40;2.20;;;;;;4957598;28;20184;-65
2023/10/05 02:08:33;;;;;;;0.57;0.50;;;25.30;3.10;;;;;;4975392;28;20274;-67
2023/10/05 02:11:04;;;;;;;1.27;0.50;;;25.00;1.60;;;;;;4957523;28;20637;-67
2023/10/05 02:13:34;;;;;;;1.47;0.60;;;25.00;1.00;;;;;;4974011;28;20191;-67
2023/10/05 02:16:02;;;;;;;2.83;0.83;;;25.30;1.00;;;;;;4975421;28;20184;-70
2023/10/05 02:18:34;;;;;;;1.90;0.50;;;25.40;2.10;;;;;;4975181;28;20733;-69
2023/10/05 02:23:38;;;;;;;2.17;0.60;;;24.90;1.00;;;;;;4976254;28;20172;-70
2023/10/05 02:26:39;;;;;;;2.37;0.60;;;24.60;1.00;;;;;;4975715;28;20235;-69
2023/10/05 02:29:00;;;;;;;1.37;0.70;;;24.80;1.00;;;;;;4972529;28;20205;-70
2023/10/05 02:31:30;;;;;;;3.33;0.60;;;24.90;1.00;;;;;;4976349;28;20633;-69
2023/10/05 02:33:58;;;;;;;1.43;0.70;;;25.00;1.00;;;;;;4976247;28;20218;-70
2023/10/05 02:36:30;;;;;;;1.47;0.70;;;24.90;1.00;;;;;;4975967;28;20180;-66
2023/10/05 02:39:00;;;;;;;1.73;0.60;;;24.40;1.00;;;;;;4975967;28;20186;-70
2023/10/05 02:41:40;;;;;;;0.80;0.50;;;24.70;1.00;;;;;;4977729;28;20202;-67
2023/10/05 02:44:17;;;;;;;4.83;0.67;;;25.10;1.00;;;;;;4995493;28;20301;-70
2023/10/05 02:46:48;;;;;;;1.27;0.60;;;25.00;1.00;;;;;;4990813;28;20191;-70
2023/10/05 02:49:15;;;;;;;1.23;0.60;;;24.80;1.00;;;;;;4976470;28;20179;-70
2023/10/05 02:51:43;;;;;;;2.37;0.70;;;25.00;1.00;;;;;;4984737;28;20183;-71
2023/10/05 02:54:12;;;;;;;1.33;0.80;;;24.80;1.00;;;;;;4971461;28;20209;-70
2023/10/05 02:56:40;;;;;;;3.47;0.70;;;24.40;1.00;;;;;;4994076;28;20560;-71
2023/10/05 02:59:14;;;;;;;2.63;0.60;;;24.20;1.00;;;;;;4993531;28;20194;-69
2023/10/05 03:01:43;;;;;;;1.57;0.63;;;24.70;1.00;;;;;;4986536;28;20583;-72
2023/10/05 03:06:41;;;;;;;1.20;0.60;;;24.30;1.00;;;;;;4981003;28;20686;-71
2023/10/05 03:09:09;;;;;;;0.97;0.50;;;24.00;1.00;;;;;;4983062;28;20282;-69
2023/10/05 03:11:40;;;;;;;1.37;0.60;;;24.10;1.00;;;;;;4988059;28;20305;-69
2023/10/05 03:14:11;;;;;;;1.23;0.50;;;24.40;1.00;;;;;;4993728;28;20179;-68
2023/10/05 03:16:48;;;;;;;3.27;0.47;;;23.90;1.00;;;;;;4994994;28;20523;-68
2023/10/05 03:19:22;;;;;;;0.87;0.50;;;24.00;1.00;;;;;;4994714;28;20209;-68
2023/10/05 03:21:58;;;;;;;2.80;0.63;;;24.10;1.00;;;;;;4994873;28;20262;-69
2023/10/05 03:24:29;;;;;;;0.97;0.47;;;24.30;1.00;;;;;;4994691;28;20301;-70
2023/10/05 03:26:57;;;;;;;2.67;0.70;;;24.50;1.00;;;;;;4994636;28;20234;-69
2023/10/05 03:29:25;;;;;;;1.67;0.70;;;24.30;1.00;;;;;;4977423;28;20182;-69
2023/10/05 03:31:55;;;;;;;1.10;0.80;;;24.40;1.00;;;;;;4994854;28;20179;-69
2023/10/05 03:34:26;;;;;;;3.10;0.57;;;24.10;1.00;;;;;;4994397;28;20276;-69
2023/10/05 03:36:55;;;;;;;3.30;0.70;;;24.30;1.00;;;;;;4994849;28;20178;-69
2023/10/05 03:39:25;;;;;;;1.60;0.70;;;24.40;1.00;;;;;;4994446;28;20596;-69
2023/10/05 03:41:52;;;;;;;2.30;0.53;;;24.20;1.00;;;;;;4994442;28;20175;-69
2023/10/05 03:44:21;;;;;;;0.87;0.50;;;24.30;1.00;;;;;;4994277;28;20202;-69
2023/10/05 03:46:49;;;;;;;1.07;0.60;;;24.30;1.00;;;;;;4994407;28;20194;-69
2023/10/05 03:49:21;;;;;;;2.20;0.53;;;23.90;1.00;;;;;;4994134;28;20194;-70
2023/10/05 03:51:52;;;;;;;2.00;0.83;;;24.10;1.00;;;;;;4994368;28;20186;-68
2023/10/05 03:54:25;;;;;;;2.50;0.60;;;24.20;1.00;;;;;;4994539;28;20186;-68
2023/10/05 03:57:30;;;;;;;2.43;0.70;;;24.20;1.00;;;;;;4977878;28;20182;-68
2023/10/05 03:59:46;;;;;;;3.00;1.03;;;24.30;1.00;;;;;;4990083;28;20715;-68
2023/10/05 04:02:17;;;;;;;2.10;0.50;;;24.20;1.00;;;;;;4994190;28;20186;-68
2023/10/05 04:04:45;;;;;;;1.17;0.50;;;23.70;1.00;;;;;;4994135;28;20618;-69
2023/10/05 04:07:12;;;;;;;2.70;0.60;;;23.70;1.00;;;;;;4994421;28;20269;-68
2023/10/05 04:09:40;;;;;;;3.17;0.60;;;23.90;1.00;;;;;;4994083;28;20301;-69
2023/10/05 04:12:10;;;;;;;1.90;0.60;;;23.80;1.00;;;;;;4994210;28;20181;-69
2023/10/05 04:14:38;;;;;;;0.77;0.70;;;23.70;1.00;;;;;;4993630;28;20200;-69
2023/10/05 04:17:11;;;;;;;2.93;0.63;;;23.80;1.00;;;;;;4994044;28;20178;-69
2023/10/05 04:19:41;;;;;;;1.93;0.80;;;23.80;1.00;;;;;;4993827;28;20310;-68
2023/10/05 04:22:09;;;;;;;0.97;0.53;;;23.70;1.00;;;;;;4976474;28;20236;-69
2023/10/05 04:24:36;;;;;;;1.60;0.60;;;23.50;1.50;;;;;;4993828;28;20217;-69
2023/10/05 04:27:04;;;;;;;1.20;0.50;;;23.60;1.90;;;;;;4993662;28;20285;-69
2023/10/05 04:29:33;;;;;;;2.83;0.67;;;23.50;2.10;;;;;;4993487;28;20182;-69
2023/10/05 04:32:00;;;;;;;2.03;0.50;;;23.70;1.00;;;;;;4993903;28;20509;-69
2023/10/05 04:34:30;;;;;;;1.20;0.60;;;23.80;1.00;;;;;;4993515;28;20186;-69
2023/10/05 04:36:59;;;;;;;1.60;0.60;;;23.70;1.00;;;;;;4977070;28;20178;-69
2023/10/05 04:39:30;;;;;;;0.93;0.50;;;23.60;1.00;;;;;;4993374;28;20253;-69
2023/10/05 04:42:05;;;;;;;1.87;0.70;;;23.40;1.00;;;;;;4993416;28;20733;-69
2023/10/05 04:44:34;;;;;;;2.57;0.63;;;23.40;1.00;;;;;;4993318;28;20217;-68
2023/10/05 04:47:03;;;;;;;0.60;0.50;;;23.40;1.00;;;;;;4993702;28;20185;-68
2023/10/05 04:49:30;;;;;;;3.10;0.60;;;23.50;1.00;;;;;;4993454;28;20175;-68
2023/10/05 04:52:00;;;;;;;2.57;0.70;;;23.70;1.00;;;;;;4976358;28;20178;-69
2023/10/05 04:54:27;;;;;;;;;;;23.60;1.00;;;;;;4993025;28;20172;-69
2023/10/05 04:56:54;;;;;;;;;;;23.20;1.00;;;;;;4992736;28;20257;-68
2023/10/05 04:59:28;;;;;;;0.73;0.40;;;23.30;1.00;;;;;;4993271;28;20483;-68
2023/10/05 05:02:00;;;;;;;0.97;0.50;;;23.40;1.00;;;;;;4993465;28;20190;-68
2023/10/05 05:06:59;;;;;;;1.53;0.77;;;23.10;1.00;;;;;;4993512;28;20177;-69
2023/10/05 05:09:34;;;;;;;1.77;0.53;;;23.40;1.00;;;;;;4993354;28;20190;-68
2023/10/05 05:12:05;;;;;;;2.40;0.57;;;23.30;1.00;;;;;;4993267;28;20186;-69
2023/10/05 05:14:41;;;;;;;0.63;0.50;;;23.30;1.00;;;;;;4975807;28;20182;-69
2023/10/05 05:17:14;;;;;;;2.73;0.70;;;22.90;1.00;;;;;;4993333;28;20631;-68
2023/10/05 05:19:57;;;;;;;1.43;0.60;;;22.70;1.00;;;;;;4993062;28;20201;-69
2023/10/05 05:22:26;;;;;;;1.77;0.60;;;22.90;1.20;;;;;;4975351;28;20186;-69
2023/10/05 05:24:54;;;;;;;3.30;0.60;;;22.50;1.00;;;;;;4993033;28;20556;-69
2023/10/05 05:27:21;;;;;;;3.63;0.77;;;22.10;1.80;;;;;;4976221;28;20647;-70
2023/10/05 05:29:51;;;;;;;1.53;0.60;;;22.00;2.50;;;;;;4993393;28;20179;-70
2023/10/05 05:32:19;;;;;;;2.57;0.93;;;22.10;2.30;;;;;;4993244;28;20194;-69
2023/10/05 05:34:50;;;;;;;1.63;0.53;;;22.40;2.80;;;;;;4993150;28;20551;-69
2023/10/05 05:37:28;;;;;;;4.30;0.90;;;22.50;3.10;;;;;;4976700;28;20190;-68
2023/10/05 05:39:57;;;;;;;1.23;0.50;;;22.60;3.50;;;;;;4992968;28;20182;-68
2023/10/05 05:42:29;;;;;;;2.10;0.70;;;22.50;2.00;;;;;;4976187;28;20194;-68
2023/10/05 05:44:57;;;;;;;3.40;0.50;;;22.40;2.20;;;;;;4993180;28;20204;-69
2023/10/05 05:47:24;;;;;;;0.87;0.50;;;22.00;1.40;;;;;;4993456;28;20181;-69
2023/10/05 05:49:52;;;;;;;0.77;0.50;;;21.80;2.10;;;;;;4978947;28;20596;-68
2023/10/05 05:52:22;;;;;;;3.20;0.80;;;21.50;1.10;;;;;;4996626;28;20181;-70
2023/10/05 05:54:50;;;;;;;4.00;0.50;;;21.60;3.10;;;;;;4996443;28;20607;-69
2023/10/05 05:57:21;;;;;;;3.57;0.73;;;21.80;2.40;;;;;;4996505;28;20671;-69
2023/10/05 05:59:49;;;;;;;3.03;0.80;;;21.70;1.60;;;;;;4978859;28;20575;-69
2023/10/05 06:02:18;;;;;;;2.40;1.00;;;21.90;2.30;;;;;;4996503;28;20183;-69
2023/10/05 06:04:49;;;;;;;1.80;1.27;;;21.80;2.70;;;;;;4996506;28;20570;-68
2023/10/05 06:07:17;;;;;;;2.70;1.00;;;21.90;2.10;;;;;;4996301;28;20183;-67
2023/10/05 06:09:45;;;;;;;0.77;0.57;;;21.40;1.60;;;;;;4963418;28;20652;-69
2023/10/05 06:12:15;;;;;;;0.60;0.40;;;21.10;1.80;;;;;;4996259;28;20178;-69
2023/10/05 06:14:43;;;;;;;0.73;0.50;;;21.40;2.20;;;;;;4996145;28;20684;-70
2023/10/05 06:17:11;;;;;;;1.67;0.50;;;21.70;2.40;;;;;;4978388;28;20674;-70
2023/10/05 06:19:39;;;;;;;2.07;0.60;;;21.80;3.00;;;;;;4995991;28;20171;-70
2023/10/05 06:22:07;;;;;;;2.97;0.73;;;22.00;3.30;;;;;;4995906;28;20182;-69
2023/10/05 06:24:37;;;;;;;0.53;0.50;;;21.90;2.90;;;;;;4995947;28;20260;-70
2023/10/05 06:27:06;;;;;;;1.67;0.60;;;21.90;2.20;;;;;;4995909;28;20261;-69
2023/10/05 06:29:34;;;;;;;3.83;0.50;;;21.60;1.00;;;;;;4995635;28;20224;-70
2023/10/05 06:32:04;;;;;;;1.50;0.40;;;21.60;1.00;;;;;;4995847;28;20541;-71
2023/10/05 06:34:34;;;;;;;2.33;0.40;;;21.60;1.00;;;;;;4978389;28;20560;-68
2023/10/05 06:37:02;;;;;;;0.63;0.43;;;21.70;1.00;;;;;;4995771;28;20671;-70
2023/10/05 06:39:30;;;;;;;2.93;0.60;;;21.70;1.00;;;;;;4978625;28;20279;-69
2023/10/05 06:41:58;;;;;;;1.80;0.70;;;21.60;1.00;;;;;;4996238;28;20186;-71
2023/10/05 06:44:26;;;;;;;3.73;0.63;;;21.30;1.20;;;;;;4995613;28;20296;-69
2023/10/05 06:46:54;;;;;;;2.80;0.80;;;21.30;1.40;;;;;;4995522;28;20221;-71
2023/10/05 06:49:22;;;;;;;;;;;21.40;2.10;;;;;;4995396;28;20174;-70
2023/10/05 06:51:50;;;;;;;0.77;0.47;;;20.90;3.10;;;;;;4995379;28;25076;-69
2023/10/05 06:54:18;;;;;;;0.70;0.50;;;20.90;3.50;;;;;;4995469;28;20189;-71
2023/10/05 06:56:49;;;;;;;1.27;0.60;;;21.00;3.00;;;;;;4995366;28;20209;-69
2023/10/05 06:59:21;;;;;;;0.90;0.50;;;20.80;3.50;;;;;;4994669;28;20580;-69
2023/10/05 07:01:49;;;;;;;2.73;0.53;;;20.70;3.50;;;;;;4995406;28;20182;-70
2023/10/05 07:04:20;;;;;;;29.07;14.73;;;20.60;3.80;;;;;;4995248;28;20213;-70
2023/10/05 07:06:50;;;;;;;2.43;1.20;;;20.50;3.70;;;;;;4995281;28;20553;-69
2023/10/05 07:09:17;;;;;;;2.70;1.35;;;20.30;4.10;;;;;;4995107;28;20194;-70
2023/10/05 07:11:45;;;;;;;1.37;0.60;;;20.20;4.60;;;;;;4995136;28;20429;-70
2023/10/05 07:17:35;;;;;;;6.07;3.63;;;20.00;5.60;;;;;;4994309;28;20265;-69
2023/10/05 07:20:03;;;;;;;2.47;1.47;;;19.80;6.80;;;;;;4977701;28;20187;-70
2023/10/05 07:22:31;;;;;;;6.93;4.40;;;19.70;7.10;;;;;;4994898;28;20181;-69
2023/10/05 07:24:59;;;;;;;1.73;0.73;;;19.70;7.80;;;;;;4994725;28;20218;-70
2023/10/05 07:27:29;;;;;;;3.47;0.90;;;19.70;7.80;;;;;;4994690;28;20199;-70
2023/10/05 07:29:58;;;;;;;6.07;1.53;;;19.70;8.30;;;;;;4977154;28;20190;-70
2023/10/05 07:32:27;;;;;;;3.87;1.10;;;19.70;8.90;;;;;;4994426;28;20213;-68
2023/10/05 07:34:54;;;;;;;1.70;0.80;;;19.70;9.40;;;;;;4977192;28;20194;-70
2023/10/05 07:37:23;;;;;;;8.00;0.97;;;19.70;10.00;;;;;;4994602;28;20196;-70
2023/10/05 07:39:55;;;;;;;1.60;0.70;;;19.60;10.70;;;;;;4993346;28;20318;-71
2023/10/05 07:42:22;;;;;;;1.67;0.70;;;19.40;10.70;;;;;;4976681;28;20310;-69
2023/10/05 07:44:53;;;;;;;3.07;0.60;;;19.30;12.10;;;;;;4994197;28;20229;-70
2023/10/05 07:47:21;;;;;;;2.33;0.70;;;19.30;12.40;;;;;;4994567;28;20654;-70
2023/10/05 07:49:48;;;;;;;4.33;0.70;;;19.20;12.90;;;;;;4994152;28;20194;-69
2023/10/05 07:52:16;;;;;;;2.07;0.50;;;19.10;13.50;;;;;;4977050;28;20181;-69
2023/10/05 07:54:43;;;;;;;3.23;0.80;;;19.00;15.10;;;;;;4994869;28;20229;-70
2023/10/05 07:57:13;;;;;;;1.40;0.90;;;18.90;15.30;;;;;;4993577;28;20268;-70
2023/10/05 07:59:42;;;;;;;1.50;1.07;;;18.70;16.30;;;;;;4977344;28;20655;-70
2023/10/05 08:02:14;;;;;;;1.57;0.83;;;18.50;18.10;;;;;;4994220;28;20281;-71
2023/10/05 08:04:42;;;;;;;2.37;1.07;;;18.50;19.20;;;;;;4976784;28;20227;-69
2023/10/05 08:07:11;;;;;;;2.47;1.20;;;18.40;20.60;;;;;;4994232;28;20207;-70
2023/10/05 08:09:42;;;;;;;0.93;0.70;;;18.30;21.80;;;;;;4994107;28;20179;-71
2023/10/05 08:12:12;;;;;;;4.27;1.10;;;18.20;23.30;;;;;;4992608;28;20202;-71
2023/10/05 08:14:44;;;;;;;1.00;0.70;;;18.10;23.60;;;;;;4977159;28;20210;-70
2023/10/05 08:17:12;;;;;;;1.10;0.60;;;18.10;25.00;;;;;;4977212;28;20205;-71
2023/10/05 08:19:42;;;;;;;2.97;0.70;;;18.10;26.60;;;;;;4994227;28;20182;-70
2023/10/05 08:25:32;;;;;;;1.07;0.67;;;17.90;28.60;;;;;;4993208;28;20284;-70
2023/10/05 08:28:01;;;;;;;1.40;0.70;;;17.80;29.90;;;;;;4977097;28;20174;-71
2023/10/05 08:30:33;;;;;;;2.00;0.70;;;17.80;30.30;;;;;;4977151;28;20179;-70
2023/10/05 08:33:03;;;;;;;2.00;0.80;;;17.80;31.80;;;;;;4993751;28;20529;-69
2023/10/05 08:38:55;;;;;;;4.40;0.90;;;17.70;33.30;;;;;;4993373;28;20286;-71
2023/10/05 08:41:35;;;;;;;2.70;0.80;;;17.60;35.30;;;;;;4993954;28;20266;-70
2023/10/05 08:44:11;;;;;;;2.07;0.70;;;17.50;36.50;;;;;;4993567;28;20924;-70
2023/10/05 08:46:43;;;;;;;3.73;0.60;;;17.50;38.60;;;;;;4977172;28;20205;-70
2023/10/05 08:49:11;;;;;;;3.67;0.80;;;17.50;38.80;;;;;;4993250;28;20257;-69
2023/10/05 08:51:53;;;;;;;0.97;0.80;;;17.30;41.90;;;;;;4993693;28;20237;-71
2023/10/05 08:54:28;;;;;;;3.50;0.63;;;17.30;44.60;;;;;;4993965;28;20178;-70
2023/10/05 08:56:59;;;;;;;1.85;0.80;;;17.30;45.10;;;;;;4994294;28;20027;-70
2023/10/05 08:59:27;;;;;;;0.60;0.50;;;17.20;49.60;;;;;;4993583;28;20195;-70
2023/10/05 09:02:00;;;;;;;4.43;0.90;;;17.00;50.50;;;;;;4993904;28;20175;-70
2023/10/05 09:04:47;;;;;;;2.00;0.80;;;17.00;54.00;;;;;;4993597;28;20214;-69
2023/10/05 09:07:35;;;;;;;2.00;0.67;;;17.00;58.40;;;;;;4993613;28;20660;-70
2023/10/05 09:10:08;;;;;;;1.57;0.70;;;17.00;59.70;;;;;;4993916;28;20548;-69
2023/10/05 09:12:36;;;;;;;0.57;0.50;;;16.90;62.60;;;;;;4976249;28;20189;-70
2023/10/05 09:15:22;;;;;;;0.87;0.60;;;16.90;64.90;;;;;;4993608;28;20190;-70
2023/10/05 09:20:38;;;;;;;1.17;0.77;;;16.80;69.30;;;;;;4993434;28;20193;-71
2023/10/05 09:23:20;;;;;;;1.67;0.80;;;16.70;71.60;;;;;;4996108;28;20182;-72
2023/10/05 09:25:50;;;;;;;1.77;0.60;;;16.60;76.70;;;;;;4970395;28;20239;-71
2023/10/05 09:28:45;;;;;;;2.17;0.60;;;16.40;89.70;;;;;;4958721;29;20215;-71
2023/10/05 09:31:41;;;;;;;1.33;0.73;;;16.30;94.70;;;;;;4958395;29;20541;-70
2023/10/05 09:34:14;;;;;;;0.87;0.67;;;16.30;91.00;;;;;;4958500;29;20241;-71
2023/10/05 09:36:42;;;;;;;1.93;0.70;;;16.30;93.30;;;;;;4958324;28;20191;-69
2023/10/05 09:39:15;;;;;;;1.90;0.87;;;16.20;95.40;;;;;;4957659;28;20259;-69
2023/10/05 09:41:49;;;;;;;1.70;0.80;;;16.10;95.90;;;;;;4957023;29;20258;-70
2023/10/05 09:44:18;;;;;;;1.57;0.87;;;16.10;97.30;;;;;;4958088;28;20241;-70
2023/10/05 09:46:49;;;;;;;2.07;0.90;;;16.00;99.90;;;;;;4958202;29;20576;-71
2023/10/05 09:49:19;;;;;;;1.87;1.00;;;15.80;99.90;;;;;;4958321;28;20709;-68
2023/10/05 09:51:48;;;;;;;2.33;1.00;;;15.70;99.90;;;;;;4958249;28;20183;-70
2023/10/05 09:54:27;;;;;;;1.30;0.70;;;15.80;99.90;;;;;;4957902;28;20194;-70
2023/10/05 09:56:55;;;;;;;3.50;0.90;;;15.70;99.90;;;;;;4941305;29;20188;-71
2023/10/05 09:59:25;;;;;;;1.03;0.70;;;15.80;99.90;;;;;;4957797;28;20180;-70
2023/10/05 10:01:54;;;;;;;1.70;0.80;;;15.70;99.90;;;;;;4956751;29;20240;-71
2023/10/05 10:04:35;;;;;;;3.30;1.40;;;15.70;99.90;;;;;;4957750;29;20226;-70
2023/10/05 10:07:16;;;;;;;1.53;1.10;;;15.60;99.90;;;;;;4957847;29;20188;-69
2023/10/05 10:09:53;;;;;;;1.43;0.93;;;15.50;99.90;;;;;;4956687;29;20230;-70
2023/10/05 10:12:39;;;;;;;2.23;1.20;;;15.50;99.90;;;;;;4957807;28;20193;-70
2023/10/05 10:15:24;;;;;;;2.87;1.00;;;15.60;99.90;;;;;;4956401;28;20289;-70
2023/10/05 10:18:17;;;;;;;5.20;1.30;;;15.60;99.90;;;;;;4957681;28;20589;-70
2023/10/05 10:20:46;;;;;;;4.27;1.00;;;15.50;99.90;;;;;;4957673;29;20608;-70
2023/10/05 10:23:21;;;;;;;3.90;2.07;;;15.40;99.90;;;;;;4957732;28;20183;-70
2023/10/05 10:25:54;;;;;;;3.23;1.53;;;15.30;99.90;;;;;;4955933;28;20616;-70
2023/10/05 10:31:30;;;;;;;4.00;1.60;;;15.10;99.90;;;;;;4957976;29;20230;-71
2023/10/05 10:34:18;;;;;;;2.10;1.20;;;14.90;99.90;;;;;;4956489;28;20188;-70
2023/10/05 10:36:53;;;;;;;1.40;1.10;;;14.80;99.90;;;;;;4956349;29;20201;-69
2023/10/05 10:39:27;;;;;;;3.63;0.90;;;14.70;99.90;;;;;;4957184;28;20201;-70
2023/10/05 10:42:04;;;;;;;1.93;1.27;;;14.60;99.90;;;;;;4956173;29;20214;-70
2023/10/05 10:47:22;;;;;;;3.27;0.90;;;14.30;99.90;;;;;;4956236;29;20184;-70
2023/10/05 10:50:15;;;;;;;2.47;1.03;;;14.30;99.90;;;;;;4957427;28;20186;-72
2023/10/05 10:52:43;;;;;;;5.30;1.20;;;14.20;99.90;;;;;;4956932;28;20190;-70
2023/10/05 10:55:21;;;;;;;1.97;1.17;;;14.20;99.90;;;;;;4955758;29;20191;-71
2023/10/05 10:57:53;;;;;;;6.33;1.37;;;14.20;99.90;;;;;;4955792;29;20230;-71
2023/10/05 11:03:24;;;;;;;3.13;1.00;;;14.10;99.90;;;;;;4956916;28;20180;-69
2023/10/05 11:05:58;;;;;;;1.37;0.70;;;14.10;99.90;;;;;;4956781;29;20222;-70
2023/10/05 11:08:30;;;;;;;1.53;0.90;;;13.90;99.90;;;;;;4956993;28;20667;-71
2023/10/05 11:11:06;;;;;;;5.13;1.27;;;13.90;99.90;;;;;;4956686;28;20278;-70
2023/10/05 11:13:39;;;;;;;3.60;1.07;;;13.90;99.90;;;;;;4956370;29;20187;-70
2023/10/05 11:16:09;;;;;;;6.60;1.20;;;13.80;99.90;;;;;;4956576;29;20189;-69
2023/10/05 11:18:50;;;;;;;2.30;0.90;;;13.80;99.90;;;;;;4955017;29;20648;-69
2023/10/05 11:21:23;;;;;;;1.07;0.80;;;13.70;99.90;;;;;;4956405;28;20187;-69
2023/10/05 11:23:59;;;;;;;1.80;0.90;;;13.70;99.90;;;;;;4956023;28;20252;-67
2023/10/05 11:26:38;;;;;;;2.43;1.10;;;13.70;99.90;;;;;;4978514;28;20566;-69
2023/10/05 11:29:15;;;;;;;2.10;1.03;;;13.70;99.90;;;;;;4995596;28;20268;-70
2023/10/05 11:31:50;;;;;;;2.83;1.10;;;13.70;99.90;;;;;;4995062;28;20214;-70
2023/10/05 11:34:19;;;;;;;1.37;0.90;;;13.60;99.90;;;;;;4994878;28;20702;-72
2023/10/05 11:36:52;;;;;;;1.47;1.00;;;13.50;99.90;;;;;;4977807;28;20563;-69
2023/10/05 11:39:27;;;;;;;1.43;0.90;;;13.30;99.90;;;;;;4978207;28;20212;-71
2023/10/05 11:41:58;;;;;;;1.40;0.80;;;13.40;99.90;;;;;;4994914;28;20181;-69
2023/10/05 11:44:27;;;;;;;2.07;1.27;;;13.30;99.90;;;;;;4994878;28;20209;-69
2023/10/05 11:46:57;;;;;;;2.20;1.07;;;13.20;99.90;;;;;;4994319;28;20209;-70
2023/10/05 11:50:55;;;;;;;3.13;0.90;;;13.20;99.90;;;;;;4953707;29;20214;-70
2023/10/05 11:53:11;;;;;;;3.00;1.03;;;13.20;99.90;;;;;;4943813;28;20199;-71
2023/10/05 11:55:40;;;;;;;3.07;1.00;;;13.20;99.90;;;;;;4992155;28;20204;-69
2023/10/05 11:58:08;;;;;;;2.30;1.13;;;13.20;99.90;;;;;;4994556;28;20181;-69
2023/10/05 12:00:37;;;;;;;3.77;1.10;;;13.20;99.90;;;;;;4994361;28;20181;-68
2023/10/05 12:03:09;;;;;;;4.50;1.10;;;13.20;99.90;;;;;;4994189;28;20224;-68
2023/10/05 12:05:38;;;;;;;1.37;1.00;;;13.20;99.90;;;;;;4994042;28;20229;-68
2023/10/05 12:08:07;;;;;;;3.47;1.20;;;13.10;99.90;;;;;;4994303;28;20280;-68
2023/10/05 12:10:35;;;;;;;3.43;1.00;;;13.10;99.90;;;;;;4993982;28;20193;-68
2023/10/05 12:13:04;;;;;;;1.90;1.10;;;13.00;99.90;;;;;;4990171;28;20218;-69
2023/10/05 12:15:39;;;;;;;3.97;1.10;;;13.00;99.90;;;;;;4994136;28;20661;-68
2023/10/05 12:18:12;;;;;;;3.23;1.30;;;12.90;99.90;;;;;;4993569;28;20181;-68
2023/10/05 12:20:45;;;;;;;1.53;1.10;;;12.90;99.90;;;;;;4976730;28;20192;-68
2023/10/05 12:23:16;;;;;;;4.40;1.20;;;12.80;99.90;;;;;;4994103;28;20216;-68
2023/10/05 12:25:47;;;;;;;1.90;1.17;;;12.80;99.90;;;;;;4993748;28;20332;-69
2023/10/05 12:28:21;;;;;;;2.50;1.07;;;12.70;99.90;;;;;;4993501;28;20275;-69
2023/10/05 12:30:50;;;;;;;1.95;1.10;;;12.70;99.90;;;;;;4977413;28;20276;-68
2023/10/05 12:33:20;;;;;;;3.53;1.33;;;12.70;99.90;;;;;;4993955;28;20696;-69
2023/10/05 12:35:52;;;;;;;1.67;1.10;;;12.70;99.90;;;;;;4994018;28;20203;-69
2023/10/05 12:38:21;;;;;;;2.80;1.10;;;12.70;99.90;;;;;;4993804;28;20291;-69
2023/10/05 12:40:49;;;;;;;1.73;1.10;;;12.70;99.90;;;;;;4992764;28;20275;-69
2023/10/05 12:43:21;;;;;;;7.27;1.20;;;12.60;99.90;;;;;;4993993;28;20182;-70
2023/10/05 12:45:50;;;;;;;2.03;1.20;;;12.60;99.90;;;;;;4994168;28;20296;-69
2023/10/05 12:48:19;;;;;;;3.43;1.07;;;12.60;99.90;;;;;;4976897;28;20759;-69
2023/10/05 12:50:50;;;;;;;2.87;1.07;;;12.40;99.90;;;;;;4993726;28;20174;-69
2023/10/05 12:53:18;;;;;;;0.80;0.77;;;12.40;99.90;;;;;;4977717;28;20209;-67
2023/10/05 12:55:45;;;;;;;5.37;3.17;;;12.40;99.90;;;;;;4988258;28;20214;-69
2023/10/05 12:58:14;;;;;;;4.03;2.30;;;12.30;99.90;;;;;;4992741;28;21103;-68
2023/10/05 13:00:44;;;;;;;5.90;2.90;;;12.30;99.90;;;;;;4975185;28;20177;-69
2023/10/05 13:03:12;;;;;;;2.70;1.60;;;12.20;99.90;;;;;;4996935;28;20265;-68
2023/10/05 13:05:43;;;;;;;6.23;1.47;;;12.20;99.90;;;;;;4979689;28;20209;-68
2023/10/05 13:08:16;;;;;;;5.20;1.77;;;12.20;99.90;;;;;;4978978;28;20554;-69
2023/10/05 13:10:48;;;;;;;2.07;1.30;;;12.20;99.90;;;;;;4979646;28;20212;-68
2023/10/05 13:13:21;;;;;;;3.17;1.40;;;12.20;99.90;;;;;;4983492;28;20190;-68
2023/10/05 13:19:13;;;;;;;5.07;1.57;;;12.00;99.90;;;;;;4977682;28;20220;-68
2023/10/05 13:22:06;;;;;;;2.03;1.20;;;12.00;99.90;;;;;;4960705;28;20191;-67
2023/10/05 13:24:36;;;;;;;1.10;1.00;;;11.90;99.90;;;;;;4978548;28;20219;-68
2023/10/05 13:27:39;;;;;;;2.67;1.33;;;11.90;99.90;;;;;;4941451;28;20290;-68
2023/10/05 13:30:08;;;;;;;4.17;1.23;;;11.90;99.90;;;;;;4939074;29;20627;-67
2023/10/05 13:32:39;;;;;;;1.60;1.00;;;11.90;99.90;;;;;;4939304;29;20188;-67
2023/10/05 13:35:10;;;;;;;3.20;1.13;;;11.80;99.90;;;;;;4939651;29;20268;-67
2023/10/05 13:37:38;;;;;;;3.97;1.30;;;11.80;99.90;;;;;;4939157;29;20184;-67
2023/10/05 13:40:07;;;;;;;4.27;1.23;;;11.70;99.90;;;;;;4940059;29;20269;-66
2023/10/05 13:42:35;;;;;;;1.13;0.93;;;11.70;99.90;;;;;;4944547;29;20599;-68
2023/10/05 13:45:10;;;;;;;2.97;1.10;;;11.70;99.90;;;;;;4957065;28;20591;-67
2023/10/05 13:47:40;;;;;;;1.83;1.13;;;11.70;99.90;;;;;;4957376;28;20546;-66
2023/10/05 13:50:08;;;;;;;2.80;0.97;;;11.70;99.90;;;;;;4957086;28;20657;-67
2023/10/05 13:52:38;;;;;;;3.43;1.03;;;11.70;99.90;;;;;;4956317;28;20201;-67
2023/10/05 13:55:07;;;;;;;3.93;1.30;;;11.60;99.90;;;;;;4956013;28;20199;-66
2023/10/05 13:57:37;;;;;;;2.70;0.83;;;11.60;99.90;;;;;;4954296;28;20188;-67
2023/10/05 14:00:18;;;;;;;1.77;1.00;;;11.60;99.90;;;;;;4956658;29;20195;-66
2023/10/05 14:02:49;;;;;;;0.90;0.70;;;11.60;99.90;;;;;;4957172;28;20652;-66
2023/10/05 14:05:19;;;;;;;1.60;0.90;;;11.70;99.90;;;;;;4957860;28;20214;-66